Terminal Aerodrome Forecast
Issued by NWS

Home | Current Version | Previous Version | Text Only | Print | Product List | Glossary On
Versions: 1 2 3 4 5 6 7 8 9 10 11 12 13 14 15
000
FTUS42 KMHX 231120
TAFPGV
TAF
KPGV 231120Z 2312/2412 09009KT P6SM BKN120
     FM231800 12015G25KT P6SM VCSH BKN120
     FM232300 11014KT P6SM VCSH OVC035
     FM240100 11013KT 4SM RA OVC030
     FM240700 10013KT 4SM RA OVC019
     FM240900 10014KT 2SM +RA OVC010
      AMD LTD TO CLD VIS AND WIND=

USA.gov is the U.S. government's official web portal to all federal, state and local government web resources and services.